Time;durP1;ratioP1;P1;durP2;ratioP2;P2;SDS_P1;SDS_P2;PMS_P1;PMS_P2;Temp;Humidity;BMP_temperature;BMP_pressure;BME280_temperature;BME280_humidity;BME280_pressure;Samples;Min_cycle;Max_cycle;Signal;HPM_P1;HPM_P2
2022/11/11 00:03:12;;;;;;;7.13;6.43;;;9.60;99.90;;;;;;2613522;54;20683;-80
2022/11/11 00:09:00;;;;;;;6.90;6.30;;;9.40;99.90;;;;;;2615855;46;20154;-80
2022/11/11 00:14:48;;;;;;;8.53;7.03;;;9.00;99.90;;;;;;2616408;54;20130;-80
2022/11/11 00:30:25;;;;;;;9.70;6.80;;;9.20;99.90;;;;;;2615659;54;20383;-80
2022/11/11 00:36:13;;;;;;;9.17;6.27;;;9.40;99.90;;;;;;2614844;54;20409;-78
2022/11/11 00:42:01;;;;;;;7.63;6.83;;;9.40;99.90;;;;;;2615546;54;20145;-78
2022/11/11 00:53:55;;;;;;;8.13;6.67;;;9.20;99.90;;;;;;2614526;54;20412;-76
2022/11/11 00:59:42;;;;;;;7.53;6.83;;;9.40;99.90;;;;;;2615435;54;20646;-78
2022/11/11 01:05:30;;;;;;;9.03;7.10;;;9.30;99.90;;;;;;2614673;39;20573;-76
2022/11/11 01:11:21;;;;;;;7.57;6.87;;;9.30;99.90;;;;;;2615612;54;20153;-78
2022/11/11 01:17:09;;;;;;;8.63;6.53;;;9.50;99.90;;;;;;2616359;54;20395;-79
2022/11/11 01:22:57;;;;;;;8.67;6.80;;;9.40;99.90;;;;;;2617596;54;20122;-78
2022/11/11 01:25:53;;;;;;;7.90;7.20;;;9.40;99.90;;;;;;2617228;39;20866;-78
2022/11/11 01:28:18;;;;;;;7.00;6.50;;;9.50;99.90;;;;;;2617505;54;20158;-79
2022/11/11 01:34:06;;;;;;;9.03;7.63;;;9.70;99.90;;;;;;2617289;54;20143;-78
2022/11/11 01:39:54;;;;;;;7.90;7.20;;;9.70;99.90;;;;;;2615470;54;20162;-78
2022/11/11 01:45:48;;;;;;;8.07;5.90;;;9.80;99.90;;;;;;2613993;54;20166;-78
2022/11/11 01:51:40;;;;;;;7.80;6.50;;;9.80;99.90;;;;;;2615243;54;20367;-78
2022/11/11 02:10:08;;;;;;;6.80;6.20;;;9.80;99.90;;;;;;2623779;46;20371;-79
2022/11/11 02:15:56;;;;;;;7.70;6.50;;;9.90;99.90;;;;;;2615685;54;20387;-78
2022/11/11 02:28:04;;;;;;;8.77;6.10;;;9.90;99.90;;;;;;2617559;54;20417;-77
2022/11/11 02:33:52;;;;;;;6.83;6.23;;;9.90;99.90;;;;;;2619462;39;20759;-78
2022/11/11 02:39:44;;;;;;;6.83;6.37;;;9.70;99.90;;;;;;2618973;54;20123;-79
2022/11/11 02:45:32;;;;;;;6.70;6.03;;;9.80;99.90;;;;;;2617294;54;20931;-78
2022/11/11 02:51:20;;;;;;;8.20;7.33;;;9.60;99.90;;;;;;2615728;54;20130;-77
2022/11/11 02:57:08;;;;;;;6.63;5.90;;;9.70;99.90;;;;;;2614548;54;20146;-77
2022/11/11 03:02:56;;;;;;;7.27;6.60;;;9.80;99.90;;;;;;2617529;39;20846;-79
2022/11/11 03:08:44;;;;;;;7.27;6.67;;;9.70;99.90;;;;;;2619303;54;20239;-78
2022/11/11 03:14:32;;;;;;;6.80;6.20;;;9.60;99.90;;;;;;2617247;54;20658;-78
2022/11/11 03:26:26;;;;;;;6.90;6.30;;;9.60;99.90;;;;;;2619394;54;20405;-78
2022/11/11 03:32:13;;;;;;;7.20;6.60;;;9.50;99.90;;;;;;2620377;31;20572;-78
2022/11/11 03:44:08;;;;;;;7.40;5.77;;;9.60;99.90;;;;;;2616625;54;20399;-80
2022/11/11 03:49:56;;;;;;;11.10;8.07;;;9.40;99.90;;;;;;2614880;54;20185;-80
2022/11/11 03:55:44;;;;;;;7.37;6.67;;;9.10;99.90;;;;;;2616535;54;20154;-78
2022/11/11 04:26:00;;;;;;;6.60;6.00;;;8.50;99.90;;;;;;2615390;54;20367;-81
2022/11/11 04:35:14;;;;;;;7.33;6.03;;;8.60;99.90;;;;;;2615010;54;20956;-80
2022/11/11 04:41:03;;;;;;;7.70;5.90;;;8.20;99.90;;;;;;2611073;54;20422;-79
2022/11/11 04:46:51;;;;;;;7.77;5.73;;;8.30;99.90;;;;;;2614661;54;20392;-80
2022/11/11 04:52:41;;;;;;;7.23;6.50;;;8.50;99.90;;;;;;2616735;39;20551;-78
2022/11/11 04:58:34;;;;;;;7.60;6.67;;;8.60;99.90;;;;;;2617439;54;20431;-78
2022/11/11 05:04:21;;;;;;;7.27;5.77;;;8.70;99.90;;;;;;2617834;54;20395;-78
2022/11/11 05:10:09;;;;;;;6.33;5.30;;;8.70;99.90;;;;;;2617116;54;20138;-77
2022/11/11 05:22:11;;;;;;;6.77;5.90;;;8.50;99.90;;;;;;2615756;54;20437;-80
2022/11/11 05:27:59;;;;;;;12.00;5.63;;;8.40;99.90;;;;;;2614479;54;20378;-80
2022/11/11 05:30:44;;;;;;;6.80;5.93;;;8.60;99.90;;;;;;2615375;47;20423;-80
2022/11/11 05:33:09;;;;;;;10.13;5.80;;;8.60;99.90;;;;;;2615872;54;20731;-80
2022/11/11 05:38:57;;;;;;;8.57;5.90;;;8.50;99.90;;;;;;2614623;54;20146;-79
2022/11/11 05:44:46;;;;;;;9.73;5.90;;;8.50;99.90;;;;;;2616213;54;20119;-80
2022/11/11 05:50:35;;;;;;;9.60;6.50;;;8.50;99.90;;;;;;2614718;54;20923;-80
2022/11/11 05:56:23;;;;;;;7.57;6.50;;;8.40;99.90;;;;;;2615382;54;20383;-80
2022/11/11 06:02:11;;;;;;;7.63;6.60;;;8.30;99.90;;;;;;2613608;54;20173;-80
2022/11/11 06:07:59;;;;;;;6.97;6.27;;;8.50;99.90;;;;;;2613246;54;20138;-79
2022/11/11 06:13:47;;;;;;;8.33;6.67;;;8.40;99.90;;;;;;2616530;54;20146;-80
2022/11/11 06:19:35;;;;;;;8.30;6.10;;;8.50;99.90;;;;;;2615400;54;20419;-80
2022/11/11 06:35:15;;;;;;;7.00;6.30;;;8.70;99.90;;;;;;2610935;54;20390;-80
2022/11/11 06:41:03;;;;;;;13.77;6.27;;;8.70;99.90;;;;;;2613721;54;20451;-80
2022/11/11 06:46:52;;;;;;;6.77;6.07;;;8.50;99.90;;;;;;2612944;54;20131;-80
2022/11/11 06:52:40;;;;;;;6.40;5.77;;;8.60;99.90;;;;;;2613738;54;20387;-81
2022/11/11 06:58:27;;;;;;;7.50;6.20;;;8.50;99.90;;;;;;2614005;54;20211;-80
2022/11/11 07:04:15;;;;;;;7.37;5.70;;;8.60;99.90;;;;;;2612459;54;20150;-80
2022/11/11 07:10:06;;;;;;;6.70;5.80;;;8.80;99.90;;;;;;2612398;54;20154;-79
2022/11/11 07:15:54;;;;;;;7.60;6.20;;;8.60;99.90;;;;;;2613899;39;20770;-79
2022/11/11 07:21:41;;;;;;;8.03;6.17;;;8.90;99.90;;;;;;2613936;54;20154;-79
2022/11/11 07:27:29;;;;;;;11.10;7.57;;;9.20;99.90;;;;;;2611846;54;20691;-77
2022/11/11 07:33:08;;;;;;;6.80;6.10;;;9.30;99.90;;;;;;2611202;54;20150;-77
2022/11/11 07:35:34;;;;;;;6.80;6.20;;;9.50;99.90;;;;;;2611492;54;20505;-77
2022/11/11 07:38:00;;;;;;;6.97;6.37;;;9.50;99.90;;;;;;2612083;54;20403;-78
2022/11/11 07:43:48;;;;;;;7.27;6.57;;;9.70;99.90;;;;;;2610916;54;20158;-77
2022/11/11 07:49:35;;;;;;;8.17;7.37;;;9.80;99.90;;;;;;2610373;54;20684;-77
2022/11/11 07:52:01;;;;;;;7.60;6.90;;;9.90;99.90;;;;;;2611757;54;20435;-77
2022/11/11 07:54:27;;;;;;;8.50;7.67;;;10.00;99.90;;;;;;2609859;47;20167;-77
2022/11/11 08:00:15;;;;;;;9.43;6.93;;;10.20;99.90;;;;;;2611390;54;20170;-79
2022/11/11 08:06:03;;;;;;;8.23;7.53;;;10.50;99.90;;;;;;2616669;39;21704;-79
2022/11/11 08:17:59;;;;;;;9.50;8.90;;;10.80;99.90;;;;;;2612727;39;20861;-78
2022/11/11 08:23:46;;;;;;;9.30;8.60;;;10.90;99.90;;;;;;2612319;54;20496;-78
2022/11/11 08:29:34;;;;;;;8.40;7.80;;;11.20;99.90;;;;;;2611749;54;20121;-78
2022/11/11 08:38:44;;;;;;;13.67;8.57;;;11.50;99.90;;;;;;2612832;54;20435;-79
2022/11/11 08:44:32;;;;;;;9.37;8.87;;;11.80;99.90;;;;;;2611005;54;20170;-78
2022/11/11 08:50:20;;;;;;;8.73;8.13;;;11.90;99.90;;;;;;2613545;54;20130;-76
2022/11/11 08:52:50;;;;;;;10.30;9.40;;;12.10;99.90;;;;;;2614223;39;20867;-76
2022/11/11 08:55:17;;;;;;;10.70;9.53;;;12.20;99.90;;;;;;2615173;39;20598;-75
2022/11/11 09:01:10;;;;;;;11.30;10.60;;;12.60;99.90;;;;;;2612538;54;20410;-76
2022/11/11 09:06:57;;;;;;;10.07;9.33;;;12.70;99.90;;;;;;2611383;54;20390;-77
2022/11/11 09:12:46;;;;;;;9.63;9.10;;;13.20;95.80;;;;;;2610257;54;20367;-77
2022/11/11 09:18:34;;;;;;;11.03;10.03;;;13.20;94.10;;;;;;2611471;54;20378;-76
2022/11/11 09:24:22;;;;;;;10.37;9.13;;;13.80;90.10;;;;;;2612178;54;20157;-76
2022/11/11 09:30:10;;;;;;;9.90;9.40;;;14.20;82.40;;;;;;2615658;39;20537;-77
2022/11/11 09:39:20;;;;;;;10.07;9.53;;;15.40;56.50;;;;;;2616414;39;20869;-79
2022/11/11 09:45:30;;;;;;;10.50;9.60;;;15.10;55.00;;;;;;2616954;54;20230;-78
2022/11/11 09:51:25;;;;;;;10.47;9.53;;;16.40;48.60;;;;;;2616297;54;20423;-78
2022/11/11 10:23:16;;;;;;;10.10;9.60;;;18.30;25.70;;;;;;2616578;54;20374;-80
2022/11/11 10:29:09;;;;;;;10.13;9.47;;;19.10;25.60;;;;;;2613345;54;20395;-79
2022/11/11 10:31:35;;;;;;;9.57;8.97;;;18.80;23.80;;;;;;2613122;54;20427;-79
2022/11/11 10:34:12;;;;;;;10.87;10.37;;;17.90;23.90;;;;;;2614217;39;20983;-78
2022/11/11 10:56:18;;;;;;;10.40;9.90;;;17.70;26.40;;;;;;2613871;54;20431;-80
2022/11/11 11:08:44;;;;;;;9.80;9.40;;;17.40;26.60;;;;;;2612329;54;20383;-79
2022/11/11 11:14:40;;;;;;;10.60;10.10;;;17.60;25.40;;;;;;2610841;54;20399;-77
2022/11/11 11:20:29;;;;;;;10.80;10.20;;;17.80;26.70;;;;;;2614328;54;20391;-76
2022/11/11 11:26:17;;;;;;;10.20;9.60;;;19.70;20.90;;;;;;2611559;39;20992;-77
2022/11/11 11:32:18;;;;;;;10.07;9.57;;;20.70;19.90;;;;;;2613168;54;20121;-79
2022/11/11 11:38:08;;;;;;;10.13;9.53;;;19.70;20.90;;;;;;2614443;54;20515;-78
2022/11/11 11:43:55;;;;;;;10.70;10.10;;;19.50;21.40;;;;;;2615371;54;21298;-79
2022/11/11 11:54:17;;;;;;;10.43;9.90;;;19.80;21.00;;;;;;2614275;54;20399;-78
2022/11/11 12:13:21;;;;;;;10.13;9.63;;;17.60;24.20;;;;;;2610881;54;20410;-79
2022/11/11 12:19:38;;;;;;;11.17;10.13;;;17.80;24.20;;;;;;2614736;39;20799;-79
2022/11/11 12:43:11;;;;;;;10.00;9.50;;;17.00;25.30;;;;;;2617539;46;20386;-80
2022/11/11 12:55:44;;;;;;;12.30;11.60;;;18.00;25.10;;;;;;2618556;54;20398;-80
2022/11/11 13:01:39;;;;;;;11.30;10.80;;;19.10;23.10;;;;;;2618482;54;20424;-79
2022/11/11 13:11:59;;;;;;;11.63;10.90;;;19.60;21.70;;;;;;2618071;54;20984;-78
2022/11/11 13:17:48;;;;;;;11.80;11.10;;;20.00;20.30;;;;;;2620184;54;20464;-78
2022/11/11 13:23:36;;;;;;;12.30;11.60;;;19.90;20.90;;;;;;2619224;54;21010;-78
2022/11/11 13:29:47;;;;;;;11.80;11.20;;;20.60;18.80;;;;;;2621379;54;20387;-81
2022/11/11 13:45:42;;;;;;;10.83;10.00;;;20.00;19.50;;;;;;2618367;54;20425;-79
2022/11/11 13:51:32;;;;;;;11.30;10.80;;;19.40;18.40;;;;;;2618044;54;20382;-79
2022/11/11 13:54:36;;;;;;;12.93;11.80;;;19.30;19.40;;;;;;2618324;46;20411;-81
2022/11/11 14:03:34;;;;;;;10.40;9.80;;;19.30;21.60;;;;;;2619449;54;20395;-78
2022/11/11 14:09:54;;;;;;;10.80;10.10;;;18.70;21.60;;;;;;2617541;54;20391;-80
2022/11/11 14:15:49;;;;;;;10.70;10.10;;;18.90;21.60;;;;;;2617212;54;20946;-78
2022/11/11 14:27:57;;;;;;;10.37;9.87;;;19.10;22.40;;;;;;2619212;54;20514;-79
2022/11/11 14:33:52;;;;;;;10.73;10.23;;;18.40;24.60;;;;;;2619492;54;20415;-79
2022/11/11 14:39:54;;;;;;;11.13;10.63;;;17.10;26.10;;;;;;2618745;54;20382;-78
2022/11/11 14:45:48;;;;;;;11.00;10.27;;;17.00;26.60;;;;;;2615381;54;20423;-79
2022/11/11 14:57:54;;;;;;;10.67;10.17;;;16.80;28.10;;;;;;2616447;39;20791;-79
2022/11/11 15:03:48;;;;;;;10.90;10.10;;;15.50;34.10;;;;;;2615331;54;20407;-78
2022/11/11 15:09:42;;;;;;;10.27;9.70;;;14.80;40.10;;;;;;2615263;54;20360;-78
2022/11/11 15:26:10;;;;;;;10.73;10.13;;;13.10;95.10;;;;;;2615462;54;21120;-79
2022/11/11 15:38:24;;;;;;;10.47;9.70;;;12.20;99.90;;;;;;2616402;54;20391;-79
2022/11/11 15:44:24;;;;;;;11.47;10.50;;;11.80;99.90;;;;;;2613489;54;20403;-78
2022/11/11 15:56:53;;;;;;;11.90;9.17;;;10.90;99.90;;;;;;2615429;54;20379;-78
2022/11/11 16:02:41;;;;;;;10.87;9.87;;;10.60;99.90;;;;;;2615556;54;20394;-78
2022/11/11 16:08:29;;;;;;;10.50;9.70;;;10.40;99.90;;;;;;2613874;54;20426;-77
2022/11/11 16:25:11;;;;;;;11.53;10.20;;;9.80;99.90;;;;;;2614623;54;20959;-78
2022/11/11 16:44:35;;;;;;;10.03;9.10;;;9.00;99.90;;;;;;2613685;54;20506;-81
2022/11/11 16:50:27;;;;;;;10.03;9.17;;;8.80;99.90;;;;;;2614646;54;20412;-80
2022/11/11 17:03:21;;;;;;;11.70;8.87;;;8.60;99.90;;;;;;2614205;54;20511;-82
2022/11/11 17:15:58;;;;;;;12.03;9.80;;;8.30;99.90;;;;;;2614799;54;20398;-79
2022/11/11 17:21:45;;;;;;;12.23;9.10;;;8.10;99.90;;;;;;2615320;54;21106;-79
2022/11/11 17:27:33;;;;;;;13.00;10.77;;;7.90;99.90;;;;;;2613874;54;20126;-79
2022/11/11 17:33:20;;;;;;;12.13;9.33;;;7.80;99.90;;;;;;2612258;54;20139;-79
2022/11/11 17:39:08;;;;;;;16.23;9.10;;;7.80;99.90;;;;;;2614898;54;20133;-78
2022/11/11 17:44:56;;;;;;;16.67;10.70;;;7.50;99.90;;;;;;2616368;54;20146;-78
2022/11/11 17:50:44;;;;;;;10.73;9.50;;;7.50;99.90;;;;;;2616313;54;20122;-79
2022/11/11 17:56:31;;;;;;;13.53;12.10;;;7.40;99.90;;;;;;2615043;54;20390;-79
2022/11/11 18:02:19;;;;;;;12.97;11.67;;;7.30;99.90;;;;;;2616187;54;20647;-79
2022/11/11 18:08:07;;;;;;;15.13;13.60;;;7.20;99.90;;;;;;2617224;54;20149;-79
2022/11/11 18:13:54;;;;;;;16.60;13.13;;;7.00;99.90;;;;;;2616871;54;20257;-78
2022/11/11 18:19:42;;;;;;;17.03;15.23;;;6.90;99.90;;;;;;2617130;54;20168;-78
2022/11/11 18:25:30;;;;;;;17.13;15.43;;;6.80;99.90;;;;;;2616786;54;20131;-79
2022/11/11 18:31:21;;;;;;;24.93;17.40;;;6.60;99.90;;;;;;2616793;54;20423;-80
2022/11/11 18:37:09;;;;;;;19.27;16.17;;;6.50;99.90;;;;;;2614343;54;21173;-79
2022/11/11 18:40:13;;;;;;;19.63;15.93;;;6.50;99.90;;;;;;2613812;47;20432;-78
2022/11/11 18:42:38;;;;;;;19.37;15.80;;;6.50;99.90;;;;;;2615185;54;20879;-76
2022/11/11 18:48:26;;;;;;;24.13;17.60;;;6.50;99.90;;;;;;2615722;54;20135;-76
2022/11/11 18:54:15;;;;;;;24.00;17.10;;;6.30;99.90;;;;;;2616024;54;20153;-76
2022/11/11 19:00:03;;;;;;;23.87;17.17;;;6.30;99.90;;;;;;2615503;54;20383;-76
2022/11/11 19:05:51;;;;;;;15.83;13.33;;;6.20;99.90;;;;;;2616756;54;20397;-76
2022/11/11 19:11:42;;;;;;;15.90;13.60;;;6.10;99.90;;;;;;2613620;54;20395;-77
2022/11/11 19:17:29;;;;;;;15.13;13.63;;;6.00;99.90;;;;;;2614130;54;20386;-75
2022/11/11 19:23:17;;;;;;;18.03;13.83;;;6.00;99.90;;;;;;2614151;54;20126;-77
2022/11/11 19:29:05;;;;;;;18.60;14.80;;;6.00;99.90;;;;;;2614818;54;20258;-78
2022/11/11 19:34:54;;;;;;;16.20;14.50;;;5.90;99.90;;;;;;2614877;54;20431;-78
2022/11/11 19:44:47;;;;;;;17.73;15.90;;;5.90;99.90;;;;;;2615812;54;20349;-78
2022/11/11 19:47:50;;;;;;;18.43;15.90;;;5.90;99.90;;;;;;2615425;54;20391;-77
2022/11/11 19:50:19;;;;;;;21.07;16.27;;;6.00;99.90;;;;;;2615320;54;20989;-78
2022/11/11 19:56:18;;;;;;;18.60;14.17;;;6.20;99.90;;;;;;2615882;54;20371;-77
2022/11/11 20:02:06;;;;;;;17.07;13.13;;;6.60;99.90;;;;;;2612850;54;20386;-77
2022/11/11 20:07:54;;;;;;;17.63;15.20;;;6.80;99.90;;;;;;2615462;54;20422;-77
2022/11/11 20:13:42;;;;;;;16.40;14.70;;;6.60;99.90;;;;;;2612794;54;20419;-77
2022/11/11 20:19:30;;;;;;;17.73;12.50;;;6.60;99.90;;;;;;2612130;54;20223;-78
2022/11/11 20:25:19;;;;;;;14.90;13.30;;;6.40;99.90;;;;;;2611923;54;20123;-79
2022/11/11 20:31:16;;;;;;;18.93;15.37;;;6.10;99.90;;;;;;2616414;54;20391;-78
2022/11/11 20:37:04;;;;;;;15.27;13.67;;;6.20;99.90;;;;;;2613914;54;20490;-77
2022/11/11 20:40:16;;;;;;;15.10;13.17;;;6.10;99.90;;;;;;2614736;54;20478;-76
2022/11/11 20:42:42;;;;;;;16.97;13.00;;;6.10;99.90;;;;;;2613521;47;20185;-77
2022/11/11 20:48:30;;;;;;;12.87;11.57;;;6.00;99.90;;;;;;2611447;54;21725;-77
2022/11/11 20:51:49;;;;;;;15.40;12.63;;;6.10;99.90;;;;;;2610271;54;20522;-77
2022/11/11 20:54:15;;;;;;;12.97;11.33;;;6.10;99.90;;;;;;2613947;54;20142;-78
2022/11/11 21:00:04;;;;;;;13.60;11.10;;;6.00;99.90;;;;;;2614771;39;20596;-77
2022/11/11 21:05:52;;;;;;;14.90;11.13;;;6.00;99.90;;;;;;2614851;54;20383;-78
2022/11/11 21:11:40;;;;;;;16.80;13.17;;;5.80;99.90;;;;;;2614632;54;20242;-78
2022/11/11 21:17:28;;;;;;;16.70;14.43;;;5.70;99.90;;;;;;2614346;54;20150;-78
2022/11/11 21:23:15;;;;;;;13.27;11.90;;;5.70;99.90;;;;;;2614322;54;20134;-78
2022/11/11 21:29:04;;;;;;;18.83;12.83;;;5.60;99.90;;;;;;2613459;54;20122;-78
2022/11/11 21:34:52;;;;;;;16.40;12.03;;;5.70;99.90;;;;;;2615196;39;20998;-78
2022/11/11 21:44:48;;;;;;;14.83;13.10;;;5.50;99.90;;;;;;2615777;39;21030;-78
2022/11/11 21:50:36;;;;;;;14.77;13.00;;;5.40;99.90;;;;;;2616274;54;20418;-78
2022/11/11 21:56:25;;;;;;;12.57;11.40;;;5.50;99.90;;;;;;2616015;54;20138;-78
2022/11/11 22:02:13;;;;;;;13.67;11.47;;;5.40;99.90;;;;;;2616035;54;20471;-78
2022/11/11 22:08:01;;;;;;;12.90;11.60;;;5.30;99.90;;;;;;2616363;39;20534;-78
2022/11/11 22:13:49;;;;;;;13.20;10.83;;;5.40;99.90;;;;;;2616065;54;20134;-78
2022/11/11 22:19:37;;;;;;;12.47;11.17;;;5.40;99.90;;;;;;2616248;54;20389;-76
2022/11/11 22:25:24;;;;;;;11.57;10.37;;;5.20;99.90;;;;;;2614856;54;20233;-77
2022/11/11 22:31:15;;;;;;;13.20;10.50;;;5.10;99.90;;;;;;2616594;54;20150;-77
2022/11/11 22:37:03;;;;;;;18.03;11.50;;;5.10;99.90;;;;;;2615761;54;20469;-77
2022/11/11 22:40:18;;;;;;;12.53;11.23;;;5.00;99.90;;;;;;2615242;54;20395;-77
2022/11/11 22:42:44;;;;;;;12.53;10.70;;;5.00;99.90;;;;;;2615241;54;20664;-76
2022/11/11 22:48:33;;;;;;;13.17;11.10;;;4.80;99.90;;;;;;2615876;54;20635;-76
2022/11/11 22:54:24;;;;;;;13.73;11.87;;;4.90;99.90;;;;;;2616350;54;20418;-75
2022/11/11 23:00:12;;;;;;;14.00;12.23;;;4.90;99.90;;;;;;2615994;54;20386;-76
2022/11/11 23:06:06;;;;;;;31.33;16.13;;;4.90;99.90;;;;;;2615781;31;20837;-77
2022/11/11 23:11:53;;;;;;;14.23;12.93;;;4.80;99.90;;;;;;2616010;54;20395;-75
2022/11/11 23:17:41;;;;;;;17.53;15.70;;;4.60;99.90;;;;;;2615864;54;20123;-76
2022/11/11 23:23:30;;;;;;;20.93;18.40;;;4.50;99.90;;;;;;2614674;54;20153;-75
2022/11/11 23:29:18;;;;;;;23.17;17.80;;;4.40;99.90;;;;;;2614684;54;20406;-75
2022/11/11 23:35:06;;;;;;;19.33;16.23;;;4.30;99.90;;;;;;2615761;54;20138;-77
2022/11/11 23:44:49;;;;;;;22.90;17.93;;;4.30;99.90;;;;;;2615385;54;20419;-77
2022/11/11 23:50:37;;;;;;;20.80;16.47;;;4.20;99.90;;;;;;2615212;54;20335;-76
2022/11/11 23:56:25;;;;;;;19.13;16.43;;;4.10;99.90;;;;;;2615156;54;20238;-77
